aviador You're here:

UKDD Decoded Metar

DNEPROPETROVSK in UKRAINE
Report Time2018-05-23 20:30:00
UTC Time2018-05-23 20:41:50
Flight Rules vfr VFR
Wind360° at 2 kt
W.Decomp.*RWY 08: 0.1 kt HW 2 kt LCW
Visibility9999 m
Phenomena:N/A
Clouds:N/A
Expected CloudBase > 1,600 ft AGL from Temp-Dew spread
CeilingNone
Temp18°C (ISA +4)
Dew Point14°C (78% RH)
QNH1018 hPa
Density Alt1,001 ft
Elevation489 ft
Report Wrong Elevation
Raw Report
UKDD 232030Z 36001MPS CAVOK 18/14 Q1018 R08/090070 NOSIG=

Extra information for UKDD:More info

Metar Taf Metar & Taf Last 4 Metars F.Rules Stats Wind Profile Meteogram Temp Stats Airport Information Weather charts Add Link Nearby VenuesMetar ALERT Operation Metar Decoded Social comments